createdAt,value
2019-03-22T00:00:51.755Z,8.75
2019-03-22T00:01:51.746Z,8.81
2019-03-22T00:02:51.761Z,8.78
2019-03-22T00:03:51.724Z,8.75
2019-03-22T00:04:51.735Z,8.75
2019-03-22T00:05:51.704Z,8.76
2019-03-22T00:06:51.694Z,8.87
2019-03-22T00:07:51.678Z,8.90
2019-03-22T00:08:51.673Z,8.87
2019-03-22T00:09:51.692Z,8.87
2019-03-22T00:10:51.646Z,8.88
2019-03-22T00:11:51.645Z,8.81
2019-03-22T00:12:51.627Z,8.81
2019-03-22T00:13:51.616Z,8.75
2019-03-22T00:14:51.626Z,8.62
2019-03-22T00:15:51.596Z,8.57
2019-03-22T00:16:51.583Z,8.35
2019-03-22T00:17:51.580Z,8.42
2019-03-22T00:18:51.568Z,8.37
2019-03-22T00:19:51.577Z,8.39
2019-03-22T00:20:51.556Z,8.48
2019-03-22T00:21:51.529Z,8.50
2019-03-22T00:22:51.519Z,8.58
2019-03-22T00:23:51.523Z,8.51
2019-03-22T00:24:51.537Z,8.44
2019-03-22T00:25:51.487Z,8.47
2019-03-22T00:26:51.490Z,8.51
2019-03-22T00:27:51.466Z,8.50
2019-03-22T00:28:51.454Z,8.57
2019-03-22T00:29:51.470Z,8.47
2019-03-22T00:30:51.443Z,8.44
2019-03-22T00:31:51.424Z,8.37
2019-03-22T00:32:53.957Z,8.39
2019-03-22T00:33:51.406Z,8.40
2019-03-22T00:34:51.415Z,8.40
2019-03-22T00:35:51.387Z,8.42
2019-03-22T00:36:51.377Z,8.42
2019-03-22T00:37:51.358Z,8.40
2019-03-22T00:38:51.347Z,8.44
2019-03-22T00:39:51.419Z,8.53
2019-03-22T00:40:51.327Z,8.51
2019-03-22T00:41:51.316Z,8.42
2019-03-22T00:42:51.312Z,8.39
2019-03-22T00:43:51.296Z,8.37
2019-03-22T00:44:51.311Z,8.35
2019-03-22T00:45:51.278Z,8.29
2019-03-22T00:46:51.263Z,8.28
2019-03-22T00:47:51.251Z,8.12
2019-03-22T00:48:51.242Z,8.10
2019-03-22T00:49:51.258Z,8.11
2019-03-22T00:50:51.221Z,8.00
2019-03-22T00:51:51.211Z,7.92
2019-03-22T00:52:51.208Z,7.90
2019-03-22T00:53:51.192Z,7.87
2019-03-22T00:54:51.204Z,7.92
2019-03-22T00:55:51.168Z,7.82
2019-03-22T00:56:51.155Z,7.81
2019-03-22T00:57:51.139Z,7.75
2019-03-22T00:58:51.135Z,7.87
2019-03-22T00:59:51.162Z,7.90
2019-03-22T01:00:52.375Z,7.99
2019-03-22T01:01:51.105Z,7.97
2019-03-22T01:02:51.099Z,8.02
2019-03-22T01:03:51.082Z,8.07
2019-03-22T01:04:51.101Z,7.97
2019-03-22T01:05:51.061Z,8.03
2019-03-22T01:06:51.052Z,7.97
2019-03-22T01:07:51.042Z,7.94
2019-03-22T01:08:51.027Z,7.89
2019-03-22T01:09:51.041Z,7.89
2019-03-22T01:10:51.008Z,7.92
2019-03-22T01:11:50.997Z,7.94
2019-03-22T01:12:51.001Z,7.89
2019-03-22T01:13:50.984Z,7.89
2019-03-22T01:14:50.991Z,7.90
2019-03-22T01:15:50.955Z,7.85
2019-03-22T01:16:50.943Z,7.79
2019-03-22T01:17:50.928Z,7.81
2019-03-22T01:18:50.927Z,7.85
2019-03-22T01:19:50.935Z,7.74
2019-03-22T01:20:50.902Z,7.74
2019-03-22T01:21:50.894Z,7.69
2019-03-22T01:22:50.883Z,7.74
2019-03-22T01:23:50.865Z,7.67
2019-03-22T01:24:50.875Z,7.78
2019-03-22T01:25:50.851Z,7.77
2019-03-22T01:26:50.841Z,7.63
2019-03-22T01:27:50.827Z,7.77
2019-03-22T01:28:50.820Z,7.58
2019-03-22T01:29:50.860Z,7.62
2019-03-22T01:30:50.799Z,7.72
2019-03-22T01:31:50.791Z,7.59
2019-03-22T01:32:50.777Z,7.60
2019-03-22T01:33:50.764Z,7.60
2019-03-22T01:34:50.752Z,7.77
2019-03-22T01:35:51.202Z,7.75
2019-03-22T01:36:50.730Z,7.59
2019-03-22T01:37:50.710Z,7.59
2019-03-22T01:38:50.731Z,7.62
2019-03-22T01:39:50.699Z,7.72
2019-03-22T01:40:50.705Z,7.71
2019-03-22T01:41:50.681Z,7.79
2019-03-22T01:42:50.674Z,7.82
2019-03-22T01:43:50.658Z,7.82
2019-03-22T01:44:50.661Z,7.85
2019-03-22T01:45:50.676Z,7.87
2019-03-22T01:46:50.656Z,7.81
2019-03-22T01:47:50.616Z,7.71
2019-03-22T01:48:50.608Z,7.77
2019-03-22T01:49:50.610Z,7.74
2019-03-22T01:50:50.616Z,7.69
2019-03-22T01:51:50.607Z,7.69
2019-03-22T01:52:50.722Z,7.78
2019-03-22T01:53:50.551Z,7.74
2019-03-22T01:54:50.534Z,7.74
2019-03-22T01:55:50.556Z,7.75
2019-03-22T01:56:50.526Z,7.74
2019-03-22T01:57:53.749Z,7.90
2019-03-22T01:58:50.504Z,7.94
2019-03-22T01:59:50.489Z,8.03
2019-03-22T02:00:50.504Z,8.04
2019-03-22T02:01:50.468Z,7.97
2019-03-22T02:02:50.464Z,7.96
2019-03-22T02:03:50.455Z,7.97
2019-03-22T02:04:50.435Z,7.90
2019-03-22T02:05:50.453Z,8.02
2019-03-22T02:06:50.414Z,7.99
2019-03-22T02:07:50.403Z,7.93
2019-03-22T02:08:50.393Z,8.00
2019-03-22T02:09:50.381Z,7.97
2019-03-22T02:10:50.387Z,7.82
2019-03-22T02:11:50.366Z,7.77
2019-03-22T02:12:50.378Z,7.63
2019-03-22T02:13:50.341Z,7.53
2019-03-22T02:14:50.331Z,7.53
2019-03-22T02:15:50.368Z,7.41
2019-03-22T02:16:50.308Z,7.29
2019-03-22T02:17:50.300Z,7.34
2019-03-22T02:18:50.286Z,7.16
2019-03-22T02:19:50.281Z,7.15
2019-03-22T02:20:50.294Z,7.13
2019-03-22T02:21:50.255Z,7.04
2019-03-22T02:22:50.249Z,6.95
2019-03-22T02:23:52.150Z,6.98
2019-03-22T02:24:50.223Z,6.83
2019-03-22T02:25:50.239Z,6.81
2019-03-22T02:26:50.216Z,6.76
2019-03-22T02:27:50.199Z,6.73
2019-03-22T02:28:50.179Z,6.71
2019-03-22T02:29:50.172Z,6.66
2019-03-22T02:30:50.178Z,6.66
2019-03-22T02:31:50.151Z,6.81
2019-03-22T02:32:50.145Z,6.66
2019-03-22T02:33:50.121Z,6.65
2019-03-22T02:34:50.119Z,6.79
2019-03-22T02:35:50.121Z,6.69
2019-03-22T02:36:50.100Z,6.66
2019-03-22T02:37:50.083Z,6.71
2019-03-22T02:38:50.074Z,6.81
2019-03-22T02:39:50.071Z,6.87
2019-03-22T02:40:50.076Z,6.86
2019-03-22T02:41:50.049Z,6.84
2019-03-22T02:42:50.035Z,6.86
2019-03-22T02:43:50.024Z,6.76
2019-03-22T02:44:50.011Z,6.79
2019-03-22T02:45:50.044Z,6.65
2019-03-22T02:46:49.991Z,6.53
2019-03-22T02:47:49.983Z,6.59
2019-03-22T02:48:49.972Z,6.46
2019-03-22T02:49:49.969Z,6.40
2019-03-22T02:50:49.971Z,6.43
2019-03-22T02:51:49.939Z,6.46
2019-03-22T02:52:49.936Z,6.35
2019-03-22T02:53:49.935Z,6.36
2019-03-22T02:54:49.924Z,6.35
2019-03-22T02:55:49.964Z,6.43
2019-03-22T02:56:50.134Z,6.41
2019-03-22T02:57:49.878Z,6.48
2019-03-22T02:58:49.875Z,6.48
2019-03-22T02:59:49.852Z,6.50
2019-03-22T03:00:49.857Z,6.51
2019-03-22T03:01:49.835Z,6.44
2019-03-22T03:02:49.830Z,6.33
2019-03-22T03:03:49.816Z,6.33
2019-03-22T03:04:49.802Z,6.26
2019-03-22T03:05:49.818Z,6.32
2019-03-22T03:06:49.780Z,6.18
2019-03-22T03:07:49.769Z,6.14
2019-03-22T03:08:49.767Z,6.11
2019-03-22T03:09:49.755Z,6.06
2019-03-22T03:10:49.770Z,6.09
2019-03-22T03:11:49.728Z,6.19
2019-03-22T03:12:49.718Z,6.19
2019-03-22T03:13:49.717Z,6.25
2019-03-22T03:14:49.695Z,6.33
2019-03-22T03:15:49.714Z,6.19
2019-03-22T03:16:49.686Z,6.29
2019-03-22T03:17:49.665Z,6.18
2019-03-22T03:18:49.651Z,6.07
2019-03-22T03:19:49.647Z,6.01
2019-03-22T03:20:49.632Z,5.92
2019-03-22T03:21:49.654Z,5.93
2019-03-22T03:22:49.620Z,6.03
2019-03-22T03:23:49.599Z,5.96
2019-03-22T03:24:49.593Z,5.95
2019-03-22T03:25:49.580Z,5.92
2019-03-22T03:26:49.601Z,5.85
2019-03-22T03:27:49.561Z,5.88
2019-03-22T03:28:49.548Z,5.83
2019-03-22T03:29:49.536Z,5.88
2019-03-22T03:30:49.559Z,5.86
2019-03-22T03:31:49.540Z,5.77
2019-03-22T03:32:49.520Z,5.68
2019-03-22T03:33:49.501Z,5.49
2019-03-22T03:34:49.484Z,5.45
2019-03-22T03:35:49.473Z,5.43
2019-03-22T03:36:49.486Z,5.31
2019-03-22T03:37:49.466Z,5.57
2019-03-22T03:38:49.446Z,5.67
2019-03-22T03:39:49.433Z,5.63
2019-03-22T03:40:49.419Z,5.56
2019-03-22T03:41:49.438Z,5.53
2019-03-22T03:42:49.401Z,5.53
2019-03-22T03:43:49.391Z,5.57
2019-03-22T03:44:49.371Z,5.59
2019-03-22T03:45:49.364Z,5.66
2019-03-22T03:46:49.385Z,5.68
2019-03-22T03:47:49.347Z,5.74
2019-03-22T03:48:49.334Z,5.77
2019-03-22T03:49:49.335Z,5.83
2019-03-22T03:50:49.314Z,5.77
2019-03-22T03:51:49.328Z,5.75
2019-03-22T03:52:49.294Z,5.85
2019-03-22T03:53:49.291Z,5.88
2019-03-22T03:54:49.271Z,6.14
2019-03-22T03:55:49.264Z,6.32
2019-03-22T03:56:49.280Z,6.38
2019-03-22T03:57:49.237Z,6.35
2019-03-22T03:58:52.784Z,6.29
2019-03-22T03:59:49.217Z,6.26
2019-03-22T04:00:49.209Z,6.13
2019-03-22T04:01:49.221Z,6.07
2019-03-22T04:02:49.190Z,6.01
2019-03-22T04:03:49.172Z,5.93
2019-03-22T04:04:49.165Z,5.91
2019-03-22T04:05:49.161Z,6.04
2019-03-22T04:06:49.172Z,5.93
2019-03-22T04:07:49.137Z,5.98
2019-03-22T04:08:49.128Z,5.96
2019-03-22T04:09:49.118Z,6.16
2019-03-22T04:10:49.102Z,6.33
2019-03-22T04:11:49.124Z,6.36
2019-03-22T04:12:49.085Z,6.48
2019-03-22T04:13:49.068Z,6.54
2019-03-22T04:14:49.056Z,6.62
2019-03-22T04:15:49.038Z,6.81
2019-03-22T04:16:49.065Z,6.90
2019-03-22T04:17:49.029Z,6.84
2019-03-22T04:18:49.015Z,6.83
2019-03-22T04:19:49.006Z,6.86
2019-03-22T04:20:48.994Z,6.86
2019-03-22T04:21:49.006Z,6.89
2019-03-22T04:22:48.974Z,6.95
2019-03-22T04:23:48.963Z,7.02
2019-03-22T04:24:48.953Z,7.12
2019-03-22T04:25:48.943Z,6.98
2019-03-22T04:26:48.955Z,7.01
2019-03-22T04:27:48.927Z,6.98
2019-03-22T04:28:48.906Z,6.99
2019-03-22T04:29:48.904Z,6.99
2019-03-22T04:30:48.891Z,6.90
2019-03-22T04:31:48.902Z,6.77
2019-03-22T04:32:48.864Z,6.80
2019-03-22T04:33:48.858Z,6.81
2019-03-22T04:34:48.838Z,6.86
2019-03-22T04:35:48.834Z,6.90
2019-03-22T04:36:48.852Z,6.95
2019-03-22T04:37:48.814Z,6.94
2019-03-22T04:38:48.799Z,7.04
2019-03-22T04:39:48.792Z,6.95
2019-03-22T04:40:48.784Z,6.98
2019-03-22T04:41:48.805Z,6.94
2019-03-22T04:42:48.756Z,7.01
2019-03-22T04:43:48.748Z,6.98
2019-03-22T04:44:48.736Z,6.91
2019-03-22T04:45:48.727Z,6.86
2019-03-22T04:46:48.741Z,6.98
2019-03-22T04:47:48.704Z,6.99
2019-03-22T04:48:48.693Z,6.91
2019-03-22T04:49:48.687Z,6.99
2019-03-22T04:50:48.675Z,6.94
2019-03-22T04:51:48.688Z,6.98
2019-03-22T04:52:48.651Z,6.86
2019-03-22T04:53:48.651Z,6.97
2019-03-22T04:54:48.621Z,6.87
2019-03-22T04:55:48.618Z,6.77
2019-03-22T04:56:48.636Z,6.80
2019-03-22T04:57:48.599Z,6.80
2019-03-22T04:58:48.587Z,6.65
2019-03-22T04:59:48.580Z,6.58
2019-03-22T05:00:48.568Z,6.47
2019-03-22T05:01:48.587Z,6.53
2019-03-22T05:02:48.542Z,6.58
2019-03-22T05:03:48.536Z,6.50
2019-03-22T05:04:48.535Z,6.58
2019-03-22T05:05:48.520Z,6.48
2019-03-22T05:06:48.537Z,6.47
2019-03-22T05:07:48.496Z,6.58
2019-03-22T05:08:48.482Z,6.54
2019-03-22T05:09:48.471Z,6.58
2019-03-22T05:10:48.462Z,6.58
2019-03-22T05:11:48.481Z,6.61
2019-03-22T05:12:48.438Z,6.59
2019-03-22T05:13:49.328Z,6.51
2019-03-22T05:14:48.421Z,6.51
2019-03-22T05:15:48.399Z,6.54
2019-03-22T05:16:48.423Z,6.53
2019-03-22T05:17:48.394Z,6.66
2019-03-22T05:18:59.351Z,6.59
2019-03-22T05:19:48.369Z,6.54
2019-03-22T05:20:48.358Z,6.69
2019-03-22T05:21:48.392Z,6.62
2019-03-22T05:22:48.343Z,6.63
2019-03-22T05:23:48.334Z,6.63
2019-03-22T05:24:48.316Z,6.65
2019-03-22T05:25:48.310Z,6.61
2019-03-22T05:26:48.296Z,6.71
2019-03-22T05:27:48.309Z,6.65
2019-03-22T05:28:48.313Z,6.66
2019-03-22T05:29:48.268Z,6.66
2019-03-22T05:30:48.250Z,6.66
2019-03-22T05:31:48.241Z,6.77
2019-03-22T05:32:48.256Z,6.69
2019-03-22T05:33:48.227Z,6.68
2019-03-22T05:34:48.210Z,6.80
2019-03-22T05:35:48.196Z,6.69
2019-03-22T05:36:48.192Z,6.87
2019-03-22T05:37:48.204Z,6.77
2019-03-22T05:38:48.174Z,6.98
2019-03-22T05:39:48.162Z,6.90
2019-03-22T05:40:48.143Z,6.87
2019-03-22T05:41:48.133Z,7.01
2019-03-22T05:42:48.149Z,6.97
2019-03-22T05:43:48.153Z,6.90
2019-03-22T05:44:48.105Z,7.08
2019-03-22T05:45:48.110Z,7.16
2019-03-22T05:46:49.029Z,7.22
2019-03-22T05:47:48.101Z,7.37
2019-03-22T05:48:48.063Z,7.55
2019-03-22T05:49:48.051Z,7.60
2019-03-22T05:50:48.044Z,7.75
2019-03-22T05:51:48.027Z,7.89
2019-03-22T05:52:48.047Z,7.90
2019-03-22T05:53:48.010Z,7.92
2019-03-22T05:54:47.997Z,7.87
2019-03-22T05:55:47.998Z,7.90
2019-03-22T05:56:47.975Z,7.79
2019-03-22T05:57:47.994Z,7.85
2019-03-22T05:58:47.962Z,7.84
2019-03-22T05:59:47.942Z,7.75
2019-03-22T06:00:47.936Z,7.84
2019-03-22T06:01:47.929Z,7.81
2019-03-22T06:02:47.945Z,7.92
2019-03-22T06:03:47.904Z,7.99
2019-03-22T06:04:47.892Z,8.03
2019-03-22T06:05:47.879Z,8.17
2019-03-22T06:06:47.873Z,8.22
2019-03-22T06:07:47.952Z,8.40
2019-03-22T06:08:47.851Z,8.72
2019-03-22T06:09:47.844Z,8.69
2019-03-22T06:10:47.828Z,8.63
2019-03-22T06:11:47.820Z,8.79
2019-03-22T06:12:47.833Z,8.86
2019-03-22T06:13:47.801Z,8.60
2019-03-22T06:14:47.791Z,8.35
2019-03-22T06:15:47.778Z,8.20
2019-03-22T06:16:47.767Z,8.11
2019-03-22T06:17:51.965Z,8.11
2019-03-22T06:18:50.271Z,8.03
2019-03-22T06:19:47.741Z,8.07
2019-03-22T06:20:47.727Z,8.11
2019-03-22T06:21:47.724Z,8.04
2019-03-22T06:22:47.787Z,8.12
2019-03-22T06:23:47.696Z,8.22
2019-03-22T06:24:47.692Z,8.42
2019-03-22T06:25:47.679Z,8.57
2019-03-22T06:26:47.664Z,8.62
2019-03-22T06:27:47.679Z,8.63
2019-03-22T06:28:47.640Z,8.68
2019-03-22T06:29:54.091Z,8.88
2019-03-22T06:30:48.621Z,8.83
2019-03-22T06:31:47.606Z,8.78
2019-03-22T06:32:47.626Z,8.69
2019-03-22T06:33:47.585Z,8.57
2019-03-22T06:34:47.571Z,8.72
2019-03-22T06:35:47.576Z,8.84
2019-03-22T06:36:47.567Z,8.86
2019-03-22T06:37:47.580Z,8.94
2019-03-22T06:38:47.536Z,8.93
2019-03-22T06:39:47.594Z,8.78
2019-03-22T06:40:47.511Z,8.75
2019-03-22T06:41:47.505Z,8.99
2019-03-22T06:42:47.521Z,9.24
2019-03-22T06:43:47.482Z,9.15
2019-03-22T06:44:47.469Z,9.27
2019-03-22T06:45:47.458Z,9.71
2019-03-22T06:46:47.444Z,9.76
2019-03-22T06:47:47.478Z,9.86
2019-03-22T06:48:47.427Z,9.71
2019-03-22T06:49:47.425Z,9.79
2019-03-22T06:50:47.408Z,9.82
2019-03-22T06:51:47.392Z,9.67
2019-03-22T06:52:47.410Z,9.61
2019-03-22T06:53:47.384Z,9.35
2019-03-22T06:54:47.366Z,9.20
2019-03-22T06:55:47.354Z,9.10
2019-03-22T06:56:47.338Z,8.99
2019-03-22T06:57:47.362Z,9.04
2019-03-22T06:58:47.329Z,9.02
2019-03-22T06:59:47.321Z,9.12
2019-03-22T07:00:47.324Z,9.16
2019-03-22T07:01:47.302Z,9.25
2019-03-22T07:02:47.320Z,9.39
2019-03-22T07:03:47.268Z,9.28
2019-03-22T07:04:47.275Z,9.45
2019-03-22T07:05:47.264Z,9.52
2019-03-22T07:06:47.248Z,9.73
2019-03-22T07:07:47.265Z,9.68
2019-03-22T07:08:47.216Z,9.85
2019-03-22T07:09:47.206Z,9.94
2019-03-22T07:10:47.202Z,9.91
2019-03-22T07:11:47.201Z,9.85
2019-03-22T07:12:47.213Z,9.78
2019-03-22T07:13:47.177Z,9.63
2019-03-22T07:14:47.224Z,9.56
2019-03-22T07:15:47.156Z,9.57
2019-03-22T07:16:47.151Z,9.70
2019-03-22T07:17:47.154Z,9.66
2019-03-22T07:18:47.116Z,9.68
2019-03-22T07:19:47.114Z,9.76
2019-03-22T07:20:47.111Z,9.91
2019-03-22T07:21:47.086Z,9.97
2019-03-22T07:22:47.114Z,10.01
2019-03-22T07:23:47.079Z,10.09
2019-03-22T07:24:47.057Z,10.21
2019-03-22T07:25:47.050Z,10.39
2019-03-22T07:26:47.030Z,10.47
2019-03-22T07:27:47.042Z,10.60
2019-03-22T07:28:47.009Z,10.98
2019-03-22T07:29:46.988Z,11.35
2019-03-22T07:30:46.981Z,11.38
2019-03-22T07:31:46.972Z,11.39
2019-03-22T07:32:47.018Z,11.29
2019-03-22T07:33:46.977Z,11.70
2019-03-22T07:34:46.942Z,11.72
2019-03-22T07:35:46.929Z,11.82
2019-03-22T07:36:47.225Z,12.12
2019-03-22T07:37:46.917Z,12.45
2019-03-22T07:38:46.919Z,12.74
2019-03-22T07:39:46.894Z,12.57
2019-03-22T07:40:46.886Z,12.44
2019-03-22T07:41:46.880Z,12.24
2019-03-22T07:42:46.864Z,12.37
2019-03-22T07:43:46.878Z,12.39
2019-03-22T07:44:46.838Z,12.64
2019-03-22T07:45:46.835Z,12.85
2019-03-22T07:46:46.805Z,12.69
2019-03-22T07:47:46.802Z,12.69
2019-03-22T07:48:46.823Z,12.71
2019-03-22T07:49:46.783Z,12.99
2019-03-22T07:50:46.772Z,13.09
2019-03-22T07:51:46.759Z,13.03
2019-03-22T07:52:46.761Z,13.12
2019-03-22T07:53:46.767Z,13.14
2019-03-22T07:54:46.732Z,13.55
2019-03-22T07:55:46.720Z,13.49
2019-03-22T07:56:46.723Z,13.73
2019-03-22T07:57:46.715Z,14.04
2019-03-22T07:58:46.741Z,13.80
2019-03-22T07:59:46.684Z,13.84
2019-03-22T08:00:46.673Z,13.56
2019-03-22T08:01:46.661Z,13.41
2019-03-22T08:02:46.662Z,13.63
2019-03-22T08:03:46.673Z,13.22
2019-03-22T08:04:46.630Z,13.37
2019-03-22T08:05:51.508Z,13.58
2019-03-22T08:06:47.611Z,13.67
2019-03-22T08:07:46.598Z,13.74
2019-03-22T08:08:46.610Z,13.73
2019-03-22T08:09:46.718Z,13.61
2019-03-22T08:10:46.561Z,13.65
2019-03-22T08:11:46.556Z,14.19
2019-03-22T08:12:46.548Z,14.65
2019-03-22T08:13:46.588Z,14.74
2019-03-22T08:14:46.546Z,15.23
2019-03-22T08:15:46.524Z,15.41
2019-03-22T08:16:46.499Z,15.05
2019-03-22T08:17:46.491Z,15.28
2019-03-22T08:18:46.512Z,15.26
2019-03-22T08:19:46.470Z,15.02
2019-03-22T08:20:46.468Z,15.21
2019-03-22T08:21:46.476Z,15.30
2019-03-22T08:22:46.473Z,15.67
2019-03-22T08:23:46.458Z,15.68
2019-03-22T08:24:46.423Z,15.48
2019-03-22T08:25:46.414Z,15.70
2019-03-22T08:26:46.410Z,15.78
2019-03-22T08:27:46.388Z,15.92
2019-03-22T08:28:46.395Z,16.45
2019-03-22T08:29:46.357Z,16.00
2019-03-22T08:30:46.349Z,15.75
2019-03-22T08:31:46.402Z,16.00
2019-03-22T08:32:46.320Z,16.41
2019-03-22T08:33:46.351Z,17.54
2019-03-22T08:34:47.771Z,17.70
2019-03-22T08:35:46.321Z,18.09
2019-03-22T08:36:46.319Z,17.59
2019-03-22T08:37:52.398Z,17.26
2019-03-22T08:38:47.313Z,17.53
2019-03-22T08:39:46.257Z,18.67
2019-03-22T08:40:46.266Z,18.58
2019-03-22T08:41:46.237Z,18.67
2019-03-22T08:42:46.234Z,18.06
2019-03-22T08:43:46.264Z,18.15
2019-03-22T08:44:46.202Z,18.18
2019-03-22T08:45:46.202Z,18.02
2019-03-22T08:46:46.239Z,17.95
2019-03-22T08:47:46.216Z,18.12
2019-03-22T08:48:46.210Z,18.22
2019-03-22T08:49:46.321Z,18.59
2019-03-22T08:50:46.141Z,18.55
2019-03-22T08:51:46.175Z,18.97
2019-03-22T08:52:46.118Z,18.22
2019-03-22T08:53:55.260Z,18.06
2019-03-22T08:54:47.171Z,18.18
2019-03-22T08:55:46.098Z,18.59
2019-03-22T08:56:46.090Z,18.44
2019-03-22T08:57:46.097Z,18.10
2019-03-22T08:58:46.091Z,17.48
2019-03-22T08:59:46.087Z,17.22
2019-03-22T09:00:56.753Z,17.30
2019-03-22T09:01:47.020Z,17.36
2019-03-22T09:02:46.047Z,17.59
2019-03-22T09:03:46.044Z,17.51
2019-03-22T09:04:46.078Z,17.63
2019-03-22T09:05:45.977Z,17.59
2019-03-22T09:06:45.976Z,18.39
2019-03-22T09:07:45.970Z,18.61
2019-03-22T09:08:47.877Z,18.17
2019-03-22T09:09:46.009Z,18.46
2019-03-22T09:10:45.930Z,18.64
2019-03-22T09:11:46.021Z,19.72
2019-03-22T09:12:46.000Z,19.32
2019-03-22T09:13:45.924Z,18.80
2019-03-22T09:14:45.950Z,19.28
2019-03-22T09:15:45.877Z,19.61
2019-03-22T09:16:45.875Z,19.46
2019-03-22T09:17:45.859Z,19.61
2019-03-22T09:18:45.857Z,19.33
2019-03-22T09:19:45.877Z,18.83
2019-03-22T09:20:45.828Z,18.62
2019-03-22T09:21:45.814Z,18.59
2019-03-22T09:22:45.818Z,19.15
2019-03-22T09:23:45.793Z,19.93
2019-03-22T09:24:45.919Z,19.43
2019-03-22T09:25:45.797Z,19.36
2019-03-22T09:26:47.966Z,19.39
2019-03-22T09:27:45.804Z,19.05
2019-03-22T09:28:45.748Z,19.31
2019-03-22T09:29:47.410Z,19.83
2019-03-22T09:30:45.724Z,19.84
2019-03-22T09:31:45.700Z,20.21
2019-03-22T09:32:45.685Z,21.26
2019-03-22T09:33:45.686Z,21.27
2019-03-22T09:34:45.704Z,21.51
2019-03-22T09:35:45.666Z,20.54
2019-03-22T09:36:45.786Z,20.46
2019-03-22T09:37:45.658Z,20.51
2019-03-22T09:38:45.651Z,20.25
2019-03-22T09:39:45.667Z,20.35
2019-03-22T09:40:45.631Z,20.53
2019-03-22T09:41:45.615Z,19.91
2019-03-22T09:42:45.661Z,19.24
2019-03-22T09:43:45.618Z,19.28
2019-03-22T09:44:45.732Z,19.88
2019-03-22T09:45:45.567Z,19.98
2019-03-22T09:46:45.578Z,20.24
2019-03-22T09:47:45.549Z,19.98
2019-03-22T09:48:45.533Z,19.98
2019-03-22T09:49:45.555Z,20.10
2019-03-22T09:50:45.523Z,20.54
2019-03-22T09:51:45.511Z,20.27
2019-03-22T09:52:45.497Z,20.05
2019-03-22T09:53:45.496Z,20.30
2019-03-22T09:54:45.498Z,20.62
2019-03-22T09:55:45.498Z,20.99
2019-03-22T09:56:47.197Z,20.02
2019-03-22T09:57:45.488Z,19.90
2019-03-22T09:58:45.435Z,20.13
2019-03-22T09:59:45.446Z,20.68
2019-03-22T10:00:48.355Z,20.69
2019-03-22T10:01:45.403Z,20.93
2019-03-22T10:02:45.396Z,21.13
2019-03-22T10:03:45.398Z,21.35
2019-03-22T10:04:45.453Z,21.08
2019-03-22T10:05:45.376Z,20.74
2019-03-22T10:06:45.371Z,21.14
2019-03-22T10:07:45.388Z,21.01
2019-03-22T10:08:45.332Z,21.50
2019-03-22T10:09:45.354Z,21.76
2019-03-22T10:10:45.326Z,22.25
2019-03-22T10:11:45.315Z,22.27
2019-03-22T10:12:45.287Z,21.72
2019-03-22T10:13:48.149Z,21.13
2019-03-22T10:14:45.303Z,21.88
2019-03-22T10:15:45.260Z,22.06
2019-03-22T10:16:47.583Z,23.49
2019-03-22T10:17:45.246Z,23.27
2019-03-22T10:18:45.230Z,23.27
2019-03-22T10:19:45.279Z,21.97
2019-03-22T10:20:45.235Z,21.95
2019-03-22T10:21:45.193Z,22.59
2019-03-22T10:22:45.207Z,23.49
2019-03-22T10:23:45.177Z,23.57
2019-03-22T10:24:45.205Z,22.77
2019-03-22T10:25:45.162Z,21.99
2019-03-22T10:26:45.148Z,20.71
2019-03-22T10:27:45.139Z,21.08
2019-03-22T10:28:45.172Z,22.14
2019-03-22T10:29:45.150Z,23.43
2019-03-22T10:30:45.105Z,24.10
2019-03-22T10:31:45.222Z,23.31
2019-03-22T10:32:45.163Z,24.16
2019-03-22T10:33:45.142Z,24.88
2019-03-22T10:34:45.099Z,25.43
2019-03-22T10:35:45.072Z,25.82
2019-03-22T10:36:45.063Z,26.37
2019-03-22T10:37:45.049Z,26.28
2019-03-22T10:38:45.035Z,25.24
2019-03-22T10:39:45.049Z,24.34
2019-03-22T10:40:45.032Z,23.40
2019-03-22T10:41:45.002Z,23.34
2019-03-22T10:42:45.008Z,22.84
2019-03-22T10:43:44.975Z,22.41
2019-03-22T10:44:44.992Z,22.75
2019-03-22T10:45:44.963Z,23.58
2019-03-22T10:46:44.961Z,24.75
2019-03-22T10:47:44.938Z,24.39
2019-03-22T10:48:44.919Z,24.54
2019-03-22T10:49:44.985Z,25.35
2019-03-22T10:50:44.937Z,25.10
2019-03-22T10:51:56.105Z,24.52
2019-03-22T10:52:48.213Z,24.16
2019-03-22T10:53:44.882Z,23.58
2019-03-22T10:54:44.883Z,23.43
2019-03-22T10:55:44.894Z,22.68
2019-03-22T10:56:44.844Z,22.22
2019-03-22T10:57:44.837Z,22.49
2019-03-22T10:58:44.829Z,23.17
2019-03-22T10:59:44.827Z,23.49
2019-03-22T11:00:44.836Z,23.42
2019-03-22T11:01:52.403Z,24.19
2019-03-22T11:02:45.778Z,25.19
2019-03-22T11:03:44.994Z,25.91
2019-03-22T11:04:44.769Z,26.35
2019-03-22T11:05:44.785Z,25.67
2019-03-22T11:06:44.746Z,25.30
2019-03-22T11:07:44.748Z,26.01
2019-03-22T11:08:44.735Z,26.06
2019-03-22T11:09:44.724Z,25.37
2019-03-22T11:10:44.747Z,24.82
2019-03-22T11:11:44.748Z,25.75
2019-03-22T11:12:44.699Z,26.02
2019-03-22T11:13:44.681Z,25.94
2019-03-22T11:14:45.764Z,26.43
2019-03-22T11:15:48.618Z,25.86
2019-03-22T11:16:44.653Z,26.35
2019-03-22T11:17:44.655Z,25.61
2019-03-22T11:19:36.462Z,25.42
2019-03-22T11:20:36.484Z,24.64
2019-03-22T11:21:36.438Z,24.41
2019-03-22T11:22:36.430Z,24.13
2019-03-22T11:23:36.419Z,24.53
2019-03-22T11:24:36.408Z,24.82
2019-03-22T11:25:36.427Z,25.38
2019-03-22T11:26:36.386Z,24.82
2019-03-22T11:27:36.375Z,24.63
2019-03-22T11:28:36.372Z,24.01
2019-03-22T11:29:36.359Z,24.08
2019-03-22T11:30:36.372Z,25.05
2019-03-22T11:31:40.091Z,24.39
2019-03-22T11:32:36.329Z,24.35
2019-03-22T11:33:36.314Z,25.46
2019-03-22T11:34:36.306Z,25.54
2019-03-22T11:35:37.183Z,24.44
2019-03-22T11:36:36.290Z,24.23
2019-03-22T11:37:36.294Z,23.77
2019-03-22T11:38:36.269Z,24.14
2019-03-22T11:39:36.258Z,24.90
2019-03-22T11:40:36.274Z,24.42
2019-03-22T11:41:36.237Z,25.38
2019-03-22T11:42:36.229Z,26.15
2019-03-22T11:43:36.211Z,27.01
2019-03-22T11:44:36.204Z,27.74
2019-03-22T11:45:36.273Z,28.33
2019-03-22T11:46:36.187Z,26.31
2019-03-22T11:47:36.176Z,25.61
2019-03-22T11:48:36.168Z,25.37
2019-03-22T11:49:36.158Z,25.56
2019-03-22T11:50:36.170Z,25.28
2019-03-22T11:51:36.136Z,26.17
2019-03-22T11:52:36.129Z,25.69
2019-03-22T11:53:36.115Z,25.07
2019-03-22T11:54:36.107Z,25.20
2019-03-22T11:55:36.126Z,25.24
2019-03-22T11:56:36.089Z,25.82
2019-03-22T11:57:36.085Z,26.22
2019-03-22T11:58:36.072Z,26.18
2019-03-22T11:59:36.062Z,26.57
2019-03-22T12:00:36.078Z,25.91
2019-03-22T12:01:36.038Z,26.08
2019-03-22T12:02:36.033Z,25.37
2019-03-22T12:03:36.020Z,24.52
2019-03-22T12:04:36.018Z,25.15
2019-03-22T12:05:40.323Z,24.59
2019-03-22T12:06:35.992Z,24.49
2019-03-22T12:07:35.987Z,25.56
2019-03-22T12:08:35.977Z,26.20
2019-03-22T12:09:35.959Z,26.52
2019-03-22T12:10:35.980Z,27.35
2019-03-22T12:11:35.946Z,27.46
2019-03-22T12:12:35.944Z,27.94
2019-03-22T12:13:35.929Z,28.44
2019-03-22T12:14:35.917Z,28.73
2019-03-22T12:15:35.946Z,29.29
2019-03-22T12:16:35.899Z,28.56
2019-03-22T12:17:35.893Z,27.73
2019-03-22T12:18:35.878Z,26.55
2019-03-22T12:19:35.869Z,24.83
2019-03-22T12:20:35.906Z,24.85
2019-03-22T12:21:35.854Z,25.72
2019-03-22T12:22:35.839Z,25.99
2019-03-22T12:23:35.830Z,25.31
2019-03-22T12:24:35.821Z,25.42
2019-03-22T12:25:35.844Z,25.24
2019-03-22T12:26:35.801Z,25.30
2019-03-22T12:27:36.720Z,25.62
2019-03-22T12:28:35.789Z,26.64
2019-03-22T12:29:35.771Z,26.15
2019-03-22T12:30:35.804Z,25.74
2019-03-22T12:31:35.752Z,25.27
2019-03-22T12:32:35.747Z,24.49
2019-03-22T12:33:35.732Z,25.32
2019-03-22T12:34:35.725Z,26.42
2019-03-22T12:35:35.718Z,26.84
2019-03-22T12:36:35.729Z,26.28
2019-03-22T12:37:35.694Z,25.17
2019-03-22T12:38:35.682Z,23.92
2019-03-22T12:39:35.678Z,24.07
2019-03-22T12:40:35.672Z,24.52
2019-03-22T12:41:35.690Z,25.49
2019-03-22T12:42:35.649Z,26.21
2019-03-22T12:43:35.642Z,25.56
2019-03-22T12:44:35.626Z,24.85
2019-03-22T12:45:35.619Z,24.63
2019-03-22T12:46:35.640Z,24.52
2019-03-22T12:47:35.597Z,25.15
2019-03-22T12:48:35.593Z,24.83
2019-03-22T12:49:35.581Z,24.05
2019-03-22T12:50:35.568Z,24.32
2019-03-22T12:51:35.589Z,24.91
2019-03-22T12:52:35.547Z,25.79
2019-03-22T12:53:35.540Z,26.65
2019-03-22T12:54:35.530Z,27.16
2019-03-22T12:55:35.521Z,26.59
2019-03-22T12:56:35.546Z,25.20
2019-03-22T12:57:35.507Z,24.54
2019-03-22T12:58:35.497Z,23.68
2019-03-22T12:59:35.505Z,24.12
2019-03-22T13:00:35.471Z,24.91
2019-03-22T13:01:35.487Z,24.61
2019-03-22T13:02:42.294Z,23.87
2019-03-22T13:03:36.446Z,24.19
2019-03-22T13:04:35.431Z,24.57
2019-03-22T13:05:35.430Z,25.79
2019-03-22T13:06:35.442Z,25.43
2019-03-22T13:07:35.407Z,25.69